Time;durP1;ratioP1;P1;durP2;ratioP2;P2;SDS_P1;SDS_P2;PMS_P1;PMS_P2;Temp;Humidity;BMP_temperature;BMP_pressure;BME280_temperature;BME280_humidity;BME280_pressure;Samples;Min_cycle;Max_cycle;Signal;HPM_P1;HPM_P2
2021/01/22 00:00:22;;;;;;;1.60;1.10;;;11.40;71.70;;;;;;5053537;28;20193;-71
2021/01/22 00:02:48;;;;;;;2.67;1.10;;;11.40;72.10;;;;;;5052240;28;20180;-72
2021/01/22 00:05:14;;;;;;;2.23;0.93;;;11.30;72.00;;;;;;5050594;28;20423;-71
2021/01/22 00:07:40;;;;;;;3.03;1.10;;;11.30;72.00;;;;;;5050524;28;20480;-71
2021/01/22 00:10:06;;;;;;;3.07;1.00;;;11.20;72.70;;;;;;5050040;28;20184;-71
2021/01/22 00:12:32;;;;;;;3.73;1.30;;;11.20;73.00;;;;;;5051535;28;20271;-70
2021/01/22 00:14:57;;;;;;;3.53;1.03;;;11.10;73.50;;;;;;5048703;28;20553;-70
2021/01/22 00:17:23;;;;;;;2.53;1.07;;;11.00;73.70;;;;;;5051135;28;20216;-70
2021/01/22 00:19:49;;;;;;;4.47;1.10;;;11.00;74.20;;;;;;5064193;28;20234;-71
2021/01/22 00:22:15;;;;;;;3.37;1.30;;;10.90;74.60;;;;;;5052032;28;20195;-71
2021/01/22 00:24:41;;;;;;;2.87;1.00;;;10.80;75.20;;;;;;5049354;28;20431;-70
2021/01/22 00:27:06;;;;;;;3.20;1.10;;;10.80;75.70;;;;;;5050119;28;20342;-71
2021/01/22 00:29:32;;;;;;;2.93;1.10;;;10.70;76.10;;;;;;5052065;28;21060;-71
2021/01/22 00:31:58;;;;;;;3.33;1.10;;;10.70;76.50;;;;;;5050750;28;20181;-71
2021/01/22 00:34:23;;;;;;;3.73;1.10;;;10.60;77.00;;;;;;5049844;28;20620;-70
2021/01/22 00:36:49;;;;;;;3.23;1.20;;;10.60;77.60;;;;;;5049104;28;20208;-70
2021/01/22 00:39:15;;;;;;;36.47;2.93;;;10.50;77.70;;;;;;5049967;28;20204;-69
2021/01/22 00:41:41;;;;;;;2.97;1.10;;;10.40;78.10;;;;;;5049088;28;20192;-70
2021/01/22 00:44:06;;;;;;;3.40;0.97;;;10.40;78.00;;;;;;5048795;28;21123;-70
2021/01/22 00:46:32;;;;;;;2.80;1.00;;;10.40;77.70;;;;;;5050633;28;20212;-71
2021/01/22 00:48:58;;;;;;;4.27;1.10;;;10.30;77.70;;;;;;5056287;28;20216;-70
2021/01/22 00:51:23;;;;;;;2.40;1.00;;;10.30;77.80;;;;;;5068244;28;20184;-69
2021/01/22 00:53:49;;;;;;;1.90;0.87;;;10.30;77.80;;;;;;5050532;28;20275;-69
2021/01/22 00:56:15;;;;;;;1.90;1.10;;;10.30;78.00;;;;;;5047957;28;20283;-72
2021/01/22 00:58:41;;;;;;;1.93;1.03;;;10.30;78.10;;;;;;5049755;28;20256;-70
2021/01/22 01:01:06;;;;;;;2.10;1.07;;;10.20;78.40;;;;;;5049006;28;20592;-69
2021/01/22 01:03:32;;;;;;;2.17;1.10;;;10.20;78.70;;;;;;5049084;28;20196;-71
2021/01/22 01:05:58;;;;;;;2.00;1.00;;;10.10;79.00;;;;;;5059922;28;20239;-69
2021/01/22 01:08:24;;;;;;;3.37;1.57;;;10.10;79.30;;;;;;5058951;28;20219;-71
2021/01/22 01:10:49;;;;;;;1.90;1.07;;;10.10;79.20;;;;;;5048918;28;20450;-71
2021/01/22 01:13:15;;;;;;;2.87;1.10;;;10.10;79.00;;;;;;5052942;28;20198;-70
2021/01/22 01:15:41;;;;;;;2.10;1.10;;;10.10;78.40;;;;;;5058139;28;20230;-70
2021/01/22 01:18:06;;;;;;;2.70;1.13;;;10.10;78.10;;;;;;5050462;28;20192;-70
2021/01/22 01:20:32;;;;;;;1.70;0.87;;;10.10;78.00;;;;;;5050789;28;20192;-70
2021/01/22 01:22:59;;;;;;;2.00;1.13;;;10.10;77.80;;;;;;5050298;28;20188;-71
2021/01/22 01:25:24;;;;;;;1.40;0.90;;;10.10;77.80;;;;;;5047842;28;20790;-69
2021/01/22 01:27:50;;;;;;;1.77;0.90;;;10.10;77.60;;;;;;5049688;28;20534;-69
2021/01/22 01:30:17;;;;;;;2.03;1.13;;;10.10;77.30;;;;;;5047428;28;20279;-69
2021/01/22 01:32:42;;;;;;;1.73;1.10;;;10.10;77.40;;;;;;5046940;28;20223;-70
2021/01/22 01:35:09;;;;;;;1.67;0.70;;;10.10;77.00;;;;;;5048024;28;20419;-71
2021/01/22 01:37:40;;;;;;;2.83;0.70;;;10.10;77.00;;;;;;5048820;28;20184;-67
2021/01/22 01:40:06;;;;;;;1.63;0.70;;;10.20;77.00;;;;;;5045465;28;20452;-70
2021/01/22 01:42:32;;;;;;;1.60;0.90;;;10.20;76.70;;;;;;5048398;28;20429;-71
2021/01/22 01:44:58;;;;;;;1.10;0.80;;;10.20;76.70;;;;;;5047846;28;20419;-71
2021/01/22 01:47:24;;;;;;;0.90;0.80;;;10.20;76.50;;;;;;5053887;28;20690;-69
2021/01/22 01:49:50;;;;;;;5.93;1.23;;;10.30;76.40;;;;;;5055162;28;20216;-71
2021/01/22 01:52:15;;;;;;;1.83;0.90;;;10.30;76.40;;;;;;5061567;28;20431;-71
2021/01/22 01:54:42;;;;;;;1.53;0.90;;;10.40;76.10;;;;;;5047033;28;20195;-69
2021/01/22 01:57:08;;;;;;;1.07;0.77;;;10.40;75.70;;;;;;5048499;28;20208;-70
2021/01/22 01:59:34;;;;;;;1.00;0.70;;;10.50;75.40;;;;;;5048414;28;20431;-69
2021/01/22 02:02:01;;;;;;;1.00;0.73;;;10.50;75.20;;;;;;5049386;28;20435;-70
2021/01/22 02:04:27;;;;;;;1.20;0.80;;;10.50;75.10;;;;;;5051056;28;20430;-71
2021/01/22 02:06:53;;;;;;;1.17;0.83;;;10.50;74.90;;;;;;5052166;28;20451;-71
2021/01/22 02:09:19;;;;;;;5.47;1.27;;;10.50;74.60;;;;;;5052012;28;21454;-71
2021/01/22 02:11:45;;;;;;;1.70;0.90;;;10.60;74.20;;;;;;5065183;28;20188;-69
2021/01/22 02:14:11;;;;;;;3.43;1.10;;;10.60;74.00;;;;;;5051553;28;20250;-74
2021/01/22 02:16:37;;;;;;;1.70;1.13;;;10.60;73.90;;;;;;5051266;28;20949;-70
2021/01/22 02:19:08;;;;;;;2.27;0.90;;;10.60;73.90;;;;;;5052029;28;20547;-69
2021/01/22 02:21:35;;;;;;;2.60;1.17;;;10.60;73.90;;;;;;5051697;28;20422;-70
2021/01/22 02:24:08;;;;;;;1.40;0.87;;;10.50;73.90;;;;;;5050072;28;21279;-69
2021/01/22 02:27:04;;;;;;;2.83;1.10;;;10.50;73.70;;;;;;5049666;28;20461;-70
2021/01/22 02:29:32;;;;;;;1.50;1.10;;;10.50;73.70;;;;;;5050572;28;20477;-70
2021/01/22 02:32:03;;;;;;;3.50;1.20;;;10.50;73.90;;;;;;5051588;28;20419;-70
2021/01/22 02:34:34;;;;;;;2.60;1.10;;;10.40;74.00;;;;;;5049958;28;20519;-69
2021/01/22 02:37:02;;;;;;;3.73;0.90;;;10.40;73.90;;;;;;5051368;28;20454;-69
2021/01/22 02:39:33;;;;;;;3.17;1.10;;;10.40;74.00;;;;;;5050029;28;20869;-71
2021/01/22 02:42:00;;;;;;;2.20;0.93;;;10.40;74.00;;;;;;5051132;28;20423;-68
2021/01/22 02:44:26;;;;;;;2.67;1.10;;;10.30;74.20;;;;;;5050009;28;20427;-71
2021/01/22 02:46:52;;;;;;;2.17;1.03;;;10.30;74.20;;;;;;5051108;28;20459;-70
2021/01/22 02:49:17;;;;;;;1.47;1.10;;;10.30;74.20;;;;;;5050980;28;20231;-71
2021/01/22 02:51:45;;;;;;;1.87;1.07;;;10.30;74.30;;;;;;5051191;28;20180;-71
2021/01/22 02:54:11;;;;;;;1.23;1.00;;;10.30;74.30;;;;;;5050623;28;20737;-67
2021/01/22 02:57:08;;;;;;;3.73;1.10;;;10.20;74.60;;;;;;5051959;28;20454;-70
2021/01/22 02:59:55;;;;;;;4.13;1.23;;;10.20;74.80;;;;;;5032492;28;20273;-70
2021/01/22 03:02:56;;;;;;;3.57;1.00;;;10.10;75.10;;;;;;5039062;28;20513;-70
2021/01/22 03:05:25;;;;;;;1.70;1.10;;;10.00;75.20;;;;;;4987718;28;20909;-70
2021/01/22 03:07:55;;;;;;;1.83;1.00;;;10.00;75.40;;;;;;5057117;28;20953;-71
2021/01/22 03:10:24;;;;;;;4.87;1.27;;;10.00;75.40;;;;;;5050839;28;20430;-71
2021/01/22 03:12:52;;;;;;;2.17;1.30;;;10.00;75.40;;;;;;5050046;28;20477;-72
2021/01/22 03:15:20;;;;;;;4.40;1.20;;;9.90;75.50;;;;;;5056012;28;20430;-71
2021/01/22 03:17:45;;;;;;;6.03;1.40;;;9.90;75.80;;;;;;5055395;28;20423;-69
2021/01/22 03:20:14;;;;;;;3.37;1.07;;;9.90;75.50;;;;;;5053120;28;20920;-68
2021/01/22 03:22:40;;;;;;;1.67;1.00;;;9.90;75.50;;;;;;5050929;28;20184;-69
2021/01/22 03:25:06;;;;;;;4.53;1.20;;;9.90;75.40;;;;;;5050279;28;20767;-70
2021/01/22 03:27:32;;;;;;;13.30;2.70;;;9.90;75.50;;;;;;5049837;28;20193;-70
2021/01/22 03:29:58;;;;;;;2.90;1.37;;;9.80;75.50;;;;;;5058749;28;20504;-68
2021/01/22 03:32:24;;;;;;;2.43;1.00;;;9.80;75.50;;;;;;5069446;28;20612;-69
2021/01/22 03:34:49;;;;;;;2.77;1.10;;;9.80;75.50;;;;;;5070441;28;20204;-69
2021/01/22 03:37:15;;;;;;;5.60;1.50;;;9.80;75.50;;;;;;5056394;28;20757;-70
2021/01/22 03:39:41;;;;;;;5.80;1.23;;;9.70;75.50;;;;;;5059544;28;20200;-70
2021/01/22 03:42:06;;;;;;;5.67;1.53;;;9.70;75.50;;;;;;5056043;28;20276;-67
2021/01/22 03:44:32;;;;;;;5.80;1.17;;;9.70;75.50;;;;;;5049647;28;20299;-69
2021/01/22 03:46:58;;;;;;;3.57;1.30;;;9.70;75.50;;;;;;5050017;28;20258;-69
2021/01/22 03:49:23;;;;;;;7.17;2.40;;;9.70;75.80;;;;;;5050134;28;20227;-71
2021/01/22 03:51:49;;;;;;;3.43;1.47;;;9.70;75.70;;;;;;5049708;28;20176;-70
2021/01/22 03:54:15;;;;;;;3.60;1.57;;;9.70;75.70;;;;;;5048644;28;20191;-71
2021/01/22 03:56:41;;;;;;;2.80;1.50;;;9.60;75.50;;;;;;5050073;28;20288;-69
2021/01/22 03:59:07;;;;;;;4.70;1.40;;;9.60;75.50;;;;;;5050367;28;20212;-69
2021/01/22 04:01:33;;;;;;;3.03;1.20;;;9.60;75.70;;;;;;5050179;28;20470;-69
2021/01/22 04:03:59;;;;;;;3.33;1.13;;;9.60;75.40;;;;;;5048076;28;20189;-70
2021/01/22 04:06:24;;;;;;;2.17;1.20;;;9.60;75.20;;;;;;5062119;28;20326;-71
2021/01/22 04:08:51;;;;;;;2.80;1.50;;;9.60;75.10;;;;;;5048339;28;20273;-69
2021/01/22 04:11:17;;;;;;;12.17;2.07;;;9.60;75.10;;;;;;5049684;28;20511;-70
2021/01/22 04:13:44;;;;;;;3.33;1.30;;;9.60;74.80;;;;;;5049426;28;20427;-70
2021/01/22 04:16:11;;;;;;;2.63;1.40;;;9.60;74.80;;;;;;5048818;28;20447;-70
2021/01/22 04:18:37;;;;;;;5.70;1.37;;;9.60;74.30;;;;;;5060858;28;20423;-70
2021/01/22 04:21:03;;;;;;;5.23;1.20;;;9.60;74.30;;;;;;5049605;28;20953;-69
2021/01/22 04:23:29;;;;;;;2.13;1.43;;;9.60;73.70;;;;;;5047815;28;20427;-70
2021/01/22 04:25:55;;;;;;;2.20;1.40;;;9.60;73.70;;;;;;5046934;28;20474;-69
2021/01/22 04:28:20;;;;;;;5.50;2.10;;;9.60;73.70;;;;;;5056137;28;20214;-68
2021/01/22 04:30:46;;;;;;;5.30;1.73;;;9.60;73.60;;;;;;5066814;28;20180;-70
2021/01/22 04:33:12;;;;;;;3.13;1.80;;;9.60;73.50;;;;;;5049215;28;20196;-70
2021/01/22 04:35:37;;;;;;;3.13;1.77;;;9.70;73.20;;;;;;5061882;28;20206;-70
2021/01/22 04:38:03;;;;;;;5.10;1.43;;;9.70;72.90;;;;;;5048248;28;20692;-68
2021/01/22 04:40:30;;;;;;;2.90;1.10;;;9.70;72.60;;;;;;5049399;28;20196;-69
2021/01/22 04:42:56;;;;;;;4.80;1.47;;;9.80;72.30;;;;;;5048711;28;20195;-69
2021/01/22 04:45:22;;;;;;;4.77;1.40;;;9.80;72.00;;;;;;5046792;28;20435;-70
2021/01/22 04:47:48;;;;;;;3.27;1.40;;;9.80;71.70;;;;;;5047534;28;20254;-69
2021/01/22 04:50:16;;;;;;;2.13;1.20;;;9.80;71.60;;;;;;5049565;28;20484;-70
2021/01/22 04:52:47;;;;;;;2.17;1.13;;;9.90;71.40;;;;;;5067370;28;20426;-69
2021/01/22 04:55:15;;;;;;;2.27;1.20;;;9.90;71.40;;;;;;5067225;28;20425;-71
2021/01/22 04:57:44;;;;;;;2.97;1.20;;;9.90;71.30;;;;;;5066183;28;20445;-70
2021/01/22 05:00:11;;;;;;;2.90;1.20;;;9.90;71.30;;;;;;5068963;28;20927;-71
2021/01/22 05:02:37;;;;;;;2.53;1.27;;;9.90;71.30;;;;;;5062667;28;20434;-70
2021/01/22 05:05:05;;;;;;;1.27;0.90;;;10.00;71.00;;;;;;5047704;28;20451;-71
2021/01/22 05:07:31;;;;;;;2.37;1.57;;;10.00;71.10;;;;;;5048500;28;22218;-69
2021/01/22 05:09:57;;;;;;;1.83;1.00;;;10.10;71.00;;;;;;5048442;28;20649;-68
2021/01/22 05:12:31;;;;;;;2.37;1.00;;;10.10;71.00;;;;;;5048464;28;20185;-69
2021/01/22 05:14:58;;;;;;;1.17;0.80;;;10.10;71.30;;;;;;5046880;28;20505;-72
2021/01/22 05:17:24;;;;;;;1.53;0.80;;;10.10;71.40;;;;;;5049050;28;20474;-69
2021/01/22 05:20:05;;;;;;;2.37;0.80;;;10.10;71.70;;;;;;5048857;28;20480;-71
2021/01/22 05:22:31;;;;;;;1.60;1.00;;;10.10;71.80;;;;;;5048376;28;20188;-69
2021/01/22 05:25:00;;;;;;;1.43;0.90;;;10.10;72.00;;;;;;5047448;28;20508;-69
2021/01/22 05:27:26;;;;;;;2.00;0.70;;;10.10;72.10;;;;;;5047037;28;20243;-70
2021/01/22 05:30:04;;;;;;;2.97;0.90;;;10.10;72.30;;;;;;5048477;28;20525;-70
2021/01/22 05:32:31;;;;;;;1.03;0.73;;;10.10;72.30;;;;;;5048672;28;20590;-70
2021/01/22 05:34:57;;;;;;;4.40;1.33;;;10.10;72.40;;;;;;5048283;28;20993;-71
2021/01/22 05:37:24;;;;;;;3.90;0.83;;;10.10;72.70;;;;;;5049619;28;20447;-68
2021/01/22 05:40:10;;;;;;;5.03;1.23;;;10.10;72.70;;;;;;5052725;28;20427;-70
2021/01/22 05:42:52;;;;;;;2.30;1.13;;;10.10;72.90;;;;;;5050724;28;20942;-70
2021/01/22 05:45:39;;;;;;;1.83;0.83;;;10.00;72.90;;;;;;5051940;28;20967;-68
2021/01/22 05:48:23;;;;;;;1.33;0.60;;;10.10;73.20;;;;;;5052600;28;20532;-70
2021/01/22 05:50:50;;;;;;;2.43;0.70;;;10.00;73.20;;;;;;5040773;28;20943;-70
2021/01/22 05:53:17;;;;;;;1.40;0.57;;;10.00;73.20;;;;;;5052774;28;20451;-69
2021/01/22 05:55:43;;;;;;;3.03;0.90;;;10.00;73.20;;;;;;5051120;28;20972;-69
2021/01/22 05:58:09;;;;;;;3.70;0.87;;;10.10;73.30;;;;;;5052162;28;20430;-70
2021/01/22 06:00:35;;;;;;;1.40;0.70;;;10.00;73.20;;;;;;5050894;28;20433;-70
2021/01/22 06:03:01;;;;;;;3.00;0.83;;;10.10;73.20;;;;;;5051536;28;20196;-70
2021/01/22 06:05:27;;;;;;;1.67;0.77;;;10.00;73.20;;;;;;5050851;28;20450;-71
2021/01/22 06:08:09;;;;;;;1.23;0.80;;;10.00;73.30;;;;;;5051600;28;20839;-73
2021/01/22 06:10:39;;;;;;;2.30;1.23;;;10.00;73.20;;;;;;5062163;28;20440;-72
2021/01/22 06:13:09;;;;;;;1.13;0.83;;;10.00;73.30;;;;;;5071367;28;20513;-71
2021/01/22 06:15:35;;;;;;;4.80;0.90;;;10.00;73.30;;;;;;5070632;28;20449;-72
2021/01/22 06:18:02;;;;;;;1.50;0.80;;;10.00;73.30;;;;;;5051931;28;20435;-69
2021/01/22 06:20:32;;;;;;;0.80;0.60;;;10.00;73.30;;;;;;5050907;28;20894;-70
2021/01/22 06:23:17;;;;;;;0.97;0.80;;;10.00;73.20;;;;;;5057323;28;20484;-69
2021/01/22 06:25:44;;;;;;;1.53;0.90;;;10.00;73.30;;;;;;5054176;28;20509;-71
2021/01/22 06:28:11;;;;;;;2.80;1.00;;;10.00;73.30;;;;;;5050567;28;20486;-69
2021/01/22 06:30:38;;;;;;;1.90;0.87;;;10.00;73.20;;;;;;5051910;28;20502;-70
2021/01/22 06:33:07;;;;;;;1.40;0.83;;;10.00;73.20;;;;;;5060666;28;20437;-70
2021/01/22 06:35:35;;;;;;;2.63;0.97;;;10.00;72.90;;;;;;5056251;28;20496;-68
2021/01/22 06:38:03;;;;;;;3.30;1.10;;;10.00;73.30;;;;;;5050098;28;20446;-69
2021/01/22 06:40:29;;;;;;;3.90;1.00;;;10.00;73.30;;;;;;5051323;28;20430;-70
2021/01/22 06:42:56;;;;;;;1.53;0.87;;;10.00;73.30;;;;;;5051028;28;20433;-71
2021/01/22 06:45:23;;;;;;;2.90;1.17;;;10.00;73.30;;;;;;5051337;28;20433;-71
2021/01/22 06:48:00;;;;;;;1.77;0.90;;;10.00;73.30;;;;;;5062213;28;20894;-70
2021/01/22 06:50:26;;;;;;;0.90;0.77;;;10.00;73.50;;;;;;5051424;28;20419;-70
2021/01/22 06:53:12;;;;;;;1.90;0.83;;;9.90;73.50;;;;;;5049955;28;20441;-69
2021/01/22 06:55:53;;;;;;;2.23;1.00;;;9.90;73.50;;;;;;5049429;28;20486;-72
2021/01/22 06:58:31;;;;;;;2.23;0.80;;;9.90;73.50;;;;;;5049593;28;20442;-71
2021/01/22 07:00:58;;;;;;;1.33;0.80;;;9.90;73.50;;;;;;5050945;28;20426;-70
2021/01/22 07:03:36;;;;;;;1.00;0.70;;;9.90;73.50;;;;;;5050532;28;20443;-70
2021/01/22 07:06:06;;;;;;;2.17;0.90;;;9.90;73.60;;;;;;5050420;28;20454;-69
2021/01/22 07:08:53;;;;;;;2.07;0.90;;;9.90;73.50;;;;;;5051586;28;20982;-71
2021/01/22 07:11:20;;;;;;;2.57;0.80;;;9.80;73.70;;;;;;5050420;28;20423;-71
2021/01/22 07:13:46;;;;;;;1.03;0.70;;;9.80;73.60;;;;;;5050101;28;20446;-69
2021/01/22 07:16:18;;;;;;;1.30;0.97;;;9.90;73.60;;;;;;5049832;28;20529;-71
2021/01/22 07:19:11;;;;;;;4.87;1.00;;;9.90;73.50;;;;;;5050672;28;20537;-71
2021/01/22 07:21:44;;;;;;;2.60;0.70;;;9.90;73.20;;;;;;5035019;28;20975;-71
2021/01/22 07:24:17;;;;;;;2.00;0.97;;;9.90;73.20;;;;;;5049616;28;20439;-73
2021/01/22 07:26:48;;;;;;;3.93;0.83;;;9.90;73.20;;;;;;5050736;28;20454;-73
2021/01/22 07:29:27;;;;;;;1.47;0.70;;;9.90;73.20;;;;;;5050361;28;20609;-72
2021/01/22 07:32:06;;;;;;;2.73;1.10;;;9.90;73.30;;;;;;5052290;28;20427;-73
2021/01/22 07:34:48;;;;;;;2.23;0.90;;;9.90;73.30;;;;;;5052042;28;20442;-75
2021/01/22 07:37:24;;;;;;;3.80;0.90;;;9.90;73.30;;;;;;5047843;28;20474;-75
2021/01/22 07:39:54;;;;;;;1.43;0.80;;;9.90;73.30;;;;;;5060835;28;20784;-75
2021/01/22 07:42:22;;;;;;;2.57;0.97;;;9.90;73.00;;;;;;5052983;28;20509;-74
2021/01/22 07:44:50;;;;;;;4.50;0.80;;;9.90;72.90;;;;;;5058687;28;20791;-76
2021/01/22 07:47:27;;;;;;;4.17;1.00;;;9.90;73.00;;;;;;5051699;28;20438;-75
2021/01/22 07:49:58;;;;;;;2.37;1.13;;;9.90;72.90;;;;;;5062835;28;20545;-74
2021/01/22 07:52:24;;;;;;;1.40;0.90;;;9.90;72.70;;;;;;5057567;28;20559;-74
2021/01/22 07:54:51;;;;;;;2.10;1.07;;;9.90;72.60;;;;;;5050613;28;20438;-75
2021/01/22 07:57:25;;;;;;;4.90;1.07;;;9.90;72.60;;;;;;5054929;28;20570;-73
2021/01/22 07:59:52;;;;;;;2.90;1.00;;;9.90;72.40;;;;;;5055571;28;20426;-72
2021/01/22 08:02:20;;;;;;;5.80;1.00;;;10.00;72.10;;;;;;5056450;28;20442;-73
2021/01/22 08:05:07;;;;;;;1.37;0.70;;;10.00;72.10;;;;;;5056566;28;20430;-73
2021/01/22 08:07:36;;;;;;;3.70;1.10;;;10.00;72.00;;;;;;5053186;28;20447;-73
2021/01/22 08:10:04;;;;;;;2.40;1.10;;;10.10;71.80;;;;;;5048773;28;20470;-71
2021/01/22 08:12:30;;;;;;;1.90;1.00;;;10.10;71.80;;;;;;5047660;28;20427;-70
2021/01/22 08:14:57;;;;;;;2.67;0.80;;;10.10;71.80;;;;;;5048874;28;21222;-71
2021/01/22 08:17:24;;;;;;;2.27;0.90;;;10.10;71.80;;;;;;5048893;28;20311;-72
2021/01/22 08:19:50;;;;;;;3.07;1.20;;;10.20;71.70;;;;;;5048695;28;20439;-71
2021/01/22 08:22:16;;;;;;;1.50;0.97;;;10.20;71.80;;;;;;5047456;28;20548;-72
2021/01/22 08:24:49;;;;;;;2.47;1.50;;;10.20;72.00;;;;;;5061539;28;20212;-71
2021/01/22 08:27:19;;;;;;;1.70;1.03;;;10.30;72.00;;;;;;5048862;28;20511;-72
2021/01/22 08:29:45;;;;;;;3.60;0.80;;;10.30;72.00;;;;;;5069123;28;20969;-70
2021/01/22 08:32:14;;;;;;;1.40;0.80;;;10.30;72.00;;;;;;5055634;28;20971;-71
2021/01/22 08:34:40;;;;;;;3.23;1.20;;;10.30;72.00;;;;;;5060487;28;20518;-72
2021/01/22 08:37:08;;;;;;;2.10;1.10;;;10.30;72.00;;;;;;5049398;28;20526;-71
2021/01/22 08:39:49;;;;;;;2.83;0.93;;;10.40;72.00;;;;;;5049692;28;20454;-71
2021/01/22 08:42:15;;;;;;;2.70;0.90;;;10.50;71.60;;;;;;5065276;28;20936;-70
2021/01/22 08:44:58;;;;;;;1.33;0.90;;;10.50;71.60;;;;;;5060532;28;20437;-71
2021/01/22 08:47:25;;;;;;;2.67;1.10;;;10.50;71.30;;;;;;5050124;28;20204;-71
2021/01/22 08:49:59;;;;;;;1.20;0.97;;;10.60;70.50;;;;;;5049281;28;20481;-71
2021/01/22 08:52:26;;;;;;;6.70;1.20;;;10.60;70.40;;;;;;5047725;28;20518;-70
2021/01/22 08:54:54;;;;;;;1.50;1.00;;;10.70;70.20;;;;;;5049106;28;20422;-72
2021/01/22 08:57:21;;;;;;;2.47;0.90;;;10.70;70.10;;;;;;5049756;28;20451;-72
2021/01/22 08:59:52;;;;;;;1.10;0.90;;;10.80;69.50;;;;;;5049360;28;20517;-70
2021/01/22 09:02:46;;;;;;;2.50;0.80;;;10.80;68.90;;;;;;5048746;28;20426;-72
2021/01/22 09:05:17;;;;;;;5.80;1.33;;;10.90;68.60;;;;;;5047825;28;20419;-72
2021/01/22 09:07:44;;;;;;;3.37;1.10;;;10.90;68.60;;;;;;5048977;28;20434;-71
2021/01/22 09:10:22;;;;;;;9.50;1.83;;;11.00;68.50;;;;;;5049258;28;20423;-70
2021/01/22 09:12:48;;;;;;;2.03;0.90;;;11.00;68.20;;;;;;5047749;28;20407;-71
2021/01/22 09:15:14;;;;;;;2.07;1.30;;;11.00;68.30;;;;;;5048166;28;20918;-70
2021/01/22 09:17:45;;;;;;;3.13;1.10;;;11.00;68.20;;;;;;5049589;28;20507;-71
2021/01/22 09:20:18;;;;;;;5.00;1.10;;;11.00;68.20;;;;;;5058528;28;20406;-71
2021/01/22 09:22:46;;;;;;;3.10;0.93;;;11.00;68.30;;;;;;5069099;28;20418;-73
2021/01/22 09:25:18;;;;;;;2.97;1.07;;;11.00;68.20;;;;;;5059112;28;20419;-72
2021/01/22 09:27:45;;;;;;;1.27;0.87;;;11.10;68.20;;;;;;5050333;28;20418;-71
2021/01/22 09:30:19;;;;;;;5.80;0.97;;;11.10;68.00;;;;;;5060527;28;20504;-70
2021/01/22 09:32:56;;;;;;;2.53;0.97;;;11.20;67.90;;;;;;5068154;28;20670;-70
2021/01/22 09:35:23;;;;;;;4.50;1.00;;;11.20;68.00;;;;;;5068171;28;20425;-71
2021/01/22 09:37:50;;;;;;;3.67;1.30;;;11.30;67.60;;;;;;5054732;28;21025;-70
2021/01/22 09:40:16;;;;;;;5.80;1.43;;;11.40;67.30;;;;;;5057575;28;20411;-71
2021/01/22 09:42:43;;;;;;;2.60;1.50;;;11.50;66.90;;;;;;5070550;28;20472;-71
2021/01/22 09:45:10;;;;;;;1.70;1.20;;;11.60;66.60;;;;;;5056488;28;20415;-70
2021/01/22 09:47:37;;;;;;;2.37;1.10;;;11.70;66.10;;;;;;5057511;28;20410;-72
2021/01/22 09:50:08;;;;;;;4.33;1.50;;;11.80;65.60;;;;;;5056850;28;20557;-71
2021/01/22 09:52:37;;;;;;;1.70;1.00;;;11.80;65.40;;;;;;5070154;28;20770;-70
2021/01/22 09:55:11;;;;;;;1.73;1.00;;;11.90;64.80;;;;;;5055721;28;20505;-70
2021/01/22 09:57:37;;;;;;;6.57;1.30;;;11.80;64.80;;;;;;5068443;28;20454;-71
2021/01/22 10:00:08;;;;;;;3.37;1.20;;;11.90;65.00;;;;;;5053429;28;20673;-71
2021/01/22 10:02:34;;;;;;;5.63;2.67;;;12.00;64.40;;;;;;5050038;28;20195;-70
2021/01/22 10:05:00;;;;;;;1.93;0.90;;;12.20;63.80;;;;;;5068627;28;20504;-70
2021/01/22 10:07:26;;;;;;;3.40;1.10;;;12.20;63.40;;;;;;5057238;28;20510;-71
2021/01/22 10:09:52;;;;;;;3.10;1.10;;;12.30;63.20;;;;;;5048109;28;20835;-70
2021/01/22 10:12:20;;;;;;;4.27;1.90;;;12.50;62.90;;;;;;5048200;28;20224;-71
2021/01/22 10:14:46;;;;;;;6.13;1.50;;;12.60;62.00;;;;;;5049240;28;20242;-71
2021/01/22 10:17:11;;;;;;;4.30;1.67;;;12.50;62.00;;;;;;5060209;28;20802;-70
2021/01/22 10:19:37;;;;;;;1.97;1.20;;;12.60;61.70;;;;;;5052697;28;20419;-70
2021/01/22 10:22:03;;;;;;;2.83;1.40;;;12.60;61.90;;;;;;5050674;28;20215;-72
2021/01/22 10:24:29;;;;;;;4.17;1.50;;;12.60;61.90;;;;;;5050391;28;20717;-70
2021/01/22 10:26:55;;;;;;;7.43;1.10;;;12.60;61.90;;;;;;5051828;28;21214;-71
2021/01/22 10:29:21;;;;;;;1.87;1.10;;;12.60;62.00;;;;;;5051936;28;20466;-70
2021/01/22 10:31:47;;;;;;;3.00;1.20;;;12.60;62.00;;;;;;5051612;28;20195;-71
2021/01/22 10:34:13;;;;;;;3.00;1.07;;;12.60;62.20;;;;;;5055574;28;20283;-71
2021/01/22 10:36:39;;;;;;;2.43;1.20;;;12.60;62.50;;;;;;5060959;28;20518;-71
2021/01/22 10:39:05;;;;;;;1.87;1.10;;;12.70;62.00;;;;;;5055574;28;20589;-70
2021/01/22 10:41:31;;;;;;;2.97;1.40;;;12.70;62.00;;;;;;5062797;28;20195;-71
2021/01/22 10:43:57;;;;;;;2.70;1.20;;;12.90;61.60;;;;;;5051908;28;21186;-69
2021/01/22 10:46:23;;;;;;;2.50;1.27;;;13.00;61.30;;;;;;5051492;28;20485;-71
2021/01/22 10:48:48;;;;;;;2.30;1.10;;;13.20;60.70;;;;;;5064943;28;20204;-70
2021/01/22 10:51:14;;;;;;;2.90;1.50;;;13.40;60.40;;;;;;5050537;28;20189;-71
2021/01/22 10:53:40;;;;;;;5.37;1.20;;;13.70;58.90;;;;;;5064154;28;20469;-71
2021/01/22 10:56:06;;;;;;;3.10;1.40;;;13.80;58.20;;;;;;5050975;28;20204;-70
2021/01/22 10:58:32;;;;;;;2.53;1.20;;;13.80;57.80;;;;;;5051398;28;20667;-71
2021/01/22 11:00:58;;;;;;;1.40;1.10;;;13.80;57.60;;;;;;5050176;28;20453;-72
2021/01/22 11:03:24;;;;;;;4.43;1.40;;;13.90;57.70;;;;;;5054096;28;20218;-71
2021/01/22 11:05:50;;;;;;;2.90;1.63;;;13.80;57.80;;;;;;5059621;28;20752;-71
2021/01/22 11:08:16;;;;;;;3.27;1.07;;;13.80;58.10;;;;;;5049069;28;20490;-70
2021/01/22 11:10:41;;;;;;;3.47;1.10;;;13.70;58.20;;;;;;5060663;28;20191;-71
2021/01/22 11:13:07;;;;;;;2.10;1.20;;;13.60;58.70;;;;;;5057572;28;20216;-71
2021/01/22 11:15:37;;;;;;;1.70;0.90;;;13.60;58.80;;;;;;5070019;28;20200;-70
2021/01/22 11:18:03;;;;;;;1.73;1.03;;;13.70;58.90;;;;;;5053305;28;20207;-70
2021/01/22 11:20:29;;;;;;;2.60;1.00;;;13.70;58.70;;;;;;5049593;28;20423;-72
2021/01/22 11:22:54;;;;;;;1.90;0.90;;;13.60;58.70;;;;;;5050206;28;20462;-72
2021/01/22 11:25:21;;;;;;;8.07;1.40;;;13.60;58.80;;;;;;5049345;28;20258;-70
2021/01/22 11:27:48;;;;;;;2.63;1.17;;;13.60;59.20;;;;;;5050379;28;20703;-71
2021/01/22 11:30:14;;;;;;;4.20;0.90;;;13.60;59.20;;;;;;5062396;28;20462;-71
2021/01/22 11:32:40;;;;;;;8.10;1.10;;;13.50;59.30;;;;;;5064561;28;20431;-70
2021/01/22 11:35:10;;;;;;;3.77;1.00;;;13.50;58.70;;;;;;5048858;28;20472;-72
2021/01/22 11:37:40;;;;;;;2.53;1.00;;;13.40;58.90;;;;;;5050416;28;20411;-70
2021/01/22 11:40:08;;;;;;;2.37;1.00;;;13.40;58.40;;;;;;5052585;28;20511;-71
2021/01/22 11:42:34;;;;;;;2.93;1.13;;;13.50;58.40;;;;;;5057917;28;20425;-73
2021/01/22 11:45:00;;;;;;;2.73;0.90;;;13.60;58.70;;;;;;5060369;28;20804;-71
2021/01/22 11:47:26;;;;;;;3.40;1.10;;;13.70;58.10;;;;;;5051300;28;21305;-73
2021/01/22 11:49:52;;;;;;;2.60;1.30;;;13.90;57.70;;;;;;5048762;28;20469;-72
2021/01/22 11:52:18;;;;;;;5.97;1.40;;;14.00;57.80;;;;;;5049844;28;20415;-70
2021/01/22 11:54:44;;;;;;;2.17;1.10;;;14.10;57.40;;;;;;5049276;28;21161;-71
2021/01/22 11:57:10;;;;;;;3.73;1.37;;;14.10;57.00;;;;;;5052418;28;20231;-71
2021/01/22 11:59:36;;;;;;;2.70;1.17;;;14.10;57.30;;;;;;5062591;28;20429;-70
2021/01/22 12:02:02;;;;;;;4.03;1.50;;;14.00;56.80;;;;;;5050018;28;20419;-71
2021/01/22 12:04:28;;;;;;;3.30;1.47;;;13.90;57.40;;;;;;5049585;28;20791;-70
2021/01/22 12:06:54;;;;;;;6.23;1.90;;;13.90;57.60;;;;;;5050336;28;20447;-70
2021/01/22 12:09:20;;;;;;;4.87;1.70;;;13.90;57.60;;;;;;5056665;28;20208;-70
2021/01/22 12:11:46;;;;;;;3.20;1.20;;;14.00;57.60;;;;;;5057807;28;20514;-71
2021/01/22 12:14:12;;;;;;;2.70;1.00;;;13.90;57.40;;;;;;5049564;28;20518;-73
2021/01/22 12:16:37;;;;;;;3.30;1.13;;;14.00;57.20;;;;;;5061518;28;20456;-72
2021/01/22 12:19:04;;;;;;;3.70;1.10;;;14.00;57.40;;;;;;5059911;28;20195;-75
2021/01/22 12:21:30;;;;;;;2.33;1.20;;;14.00;57.20;;;;;;5053201;28;20827;-74
2021/01/22 12:23:56;;;;;;;3.03;1.07;;;14.00;56.60;;;;;;5050168;28;21142;-73
2021/01/22 12:26:22;;;;;;;1.53;1.00;;;14.00;56.10;;;;;;5052402;28;20439;-73
2021/01/22 12:28:49;;;;;;;2.00;0.90;;;14.00;55.60;;;;;;5051637;28;20234;-73
2021/01/22 12:31:15;;;;;;;1.20;0.90;;;14.00;55.30;;;;;;5050762;28;20263;-74
2021/01/22 12:33:41;;;;;;;2.13;1.10;;;14.00;54.90;;;;;;5056625;28;20464;-75
2021/01/22 12:36:07;;;;;;;1.63;1.00;;;14.10;54.20;;;;;;5058616;28;20439;-74
2021/01/22 12:38:34;;;;;;;1.60;0.80;;;14.20;53.80;;;;;;5050168;28;21025;-73
2021/01/22 12:41:03;;;;;;;3.90;1.27;;;14.20;54.00;;;;;;5049123;28;20427;-73
2021/01/22 12:43:29;;;;;;;3.00;1.20;;;14.30;53.60;;;;;;5047371;28;21071;-73
2021/01/22 12:45:55;;;;;;;5.63;1.17;;;14.30;53.30;;;;;;5047926;28;20608;-74
2021/01/22 12:48:20;;;;;;;3.60;1.30;;;14.40;53.20;;;;;;5048089;28;20247;-73
2021/01/22 12:50:46;;;;;;;274.53;164.70;;;14.50;52.40;;;;;;5047065;28;20184;-75
2021/01/22 12:53:13;;;;;;;7.33;1.30;;;14.50;52.50;;;;;;5047342;28;20181;-74